KMIC/MIC METAR and TAF weather

Enter ICAO airport designator
Station Type Date Time Source
KMIC METAR 2019/10/23 21:17 UTC NOAA

KMIC 232117Z 32005KT 10SM OVC030 07/M01 A2993 RMK AO2 T00671006


Station Type Date Time Source
KMIC Decoded METAR 2019/10/23 21:17 UTC NOAA

CRYSTAL AIRPORT, MN, United States (KMIC) 45-04N 093-21W 265M
Oct 23, 2019 - 05:17 PM EDT / 2019.10.23 2117 UTC
Wind: from the NW (320 degrees) at 6 MPH (5 KT):0
Visibility: 10 mile(s):0
Sky conditions: overcast
Temperature: 44.1 F (6.7 C)
Dew Point: 30.9 F (-0.6 C)
Relative Humidity: 59%
Pressure (altimeter): 29.93 in. Hg (1013 hPa)
ob: KMIC 232117Z 32005KT 10SM OVC030 07/M01 A2993 RMK AO2 T00671006
cycle: 21

Station Type Date Time Source
KMIC TAF UTC NOAA

Error!

Example: see airport list